Date,TemperatureHighF,TemperatureAvgF,TemperatureLowF,DewpointHighF,DewpointAvgF,DewpointLowF,HumidityHigh,HumidityAvg,HumidityLow,PressureMaxIn,PressureMinIn,WindSpeedMaxMPH,WindSpeedAvgMPH,GustSpeedMaxMPH,PrecipitationSumIn
2013-2-1,33.2,30.6,27.9,13.8,9.5,6.5,49,41,35,30.18,29.99,28,10,45,0.00
2013-2-2,37.2,34.5,28.2,8.2,2.4,0.3,42,26,21,30.30,30.18,33,7,42,0.00
2013-2-3,41.5,37.6,33.8,0.9,-1.4,-11.0,22,19,10,30.22,29.45,33,8,37,0.00
2013-2-4,33.7,33.1,31.8,0.0,-3.0,-4.0,24,20,19,29.91,29.73,23,16,31,0.00
2013-2-5,44.9,35.5,33.1,19.5,2.2,-3.0,38,24,20,29.87,29.45,16,12,7,0.00
2013-2-6,42.9,40.0,28.1,17.7,14.1,10.4,63,35,30,29.94,29.63,17,8,21,0.00
2013-2-7,35.8,29.1,17.8,21.4,9.8,-11.0,92,49,14,30.23,29.95,13,2,19,0.01
2013-2-8,37.5,33.2,28.5,14.9,-6.0,-18.0,49,18,11,30.11,29.64,6,2,12,0.00
2013-2-9,33.1,24.2,18.0,20.2,14.4,6.0,91,68,46,29.67,29.52,23,4,30,0.00
2013-2-10,22.9,18.5,10.9,15.8,6.7,0.1,82,61,41,30.15,29.59,25,3,31,0.00
2013-2-11,15.6,11.5,6.5,11.9,7.0,1.5,85,82,76,30.30,30.15,5,1,8,0.00
2013-2-12,29.4,21.2,10.7,5.1,-5.3,-17.0,76,32,14,30.30,30.15,27,4,33,0.02
2013-2-13,32.2,28.1,22.5,9.8,4.5,-1.0,44,36,26,30.17,29.99,29,11,45,0.00
2013-2-14,29.7,20.1,11.1,15.6,8.5,4.3,85,65,36,30.35,30.01,25,4,40,0.00
2013-2-15,28.4,20.7,9.3,15.7,7.9,-1.0,83,60,28,30.50,30.35,36,6,47,0.09
2013-2-16,35.2,32.8,26.9,8.5,5.7,4.6,44,32,28,30.37,29.93,43,16,55,0.00
2013-2-17,44.1,40.1,21.4,11.6,-2.7,-10.0,65,18,10,29.96,29.42,25,8,28,0.00
2013-2-18,26.7,21.1,13.8,11.0,-1.4,-7.0,64,37,23,30.19,29.58,25,6,35,0.00
2013-2-19,34.3,22.6,11.7,8.9,2.0,-18.0,58,41,13,30.19,29.89,6,2,8,0.00
2013-2-20,27.2,21.2,12.6,17.4,8.5,2.2,87,60,38,29.88,29.68,8,2,12,0.00
2013-2-21,18.3,13.9,10.0,14.8,9.9,5.3,86,84,81,30.07,29.75,7,2,9,0.00
2013-2-22,24.2,17.5,11.7,16.1,9.3,-1.0,83,71,41,30.12,29.99,18,3,30,0.00
2013-2-23,36.3,28.1,18.0,16.7,5.3,-3.0,86,39,30,29.99,29.68,25,6,47,0.01
2013-2-24,20.3,17.7,10.9,17.5,14.4,6.5,89,87,82,30.24,29.78,21,4,26,0.00
2013-2-25,26.0,19.3,9.7,17.7,11.4,5.0,83,71,56,30.24,29.98,9,2,15,0.07
2013-2-26,23.9,20.1,14.4,19.0,12.4,5.4,88,73,50,30.25,29.92,11,2,17,0.00
2013-2-27,27.3,19.0,11.2,8.2,-0.4,-11.0,76,44,24,30.41,30.25,15,5,28,0.01
2013-2-28,27.2,22.6,16.9,1.0,-2.5,-7.0,39,32,28,30.41,30.23,28,9,37,0.00